Time;durP1;ratioP1;P1;durP2;ratioP2;P2;SDS_P1;SDS_P2;PMS_P1;PMS_P2;Temp;Humidity;BMP_temperature;BMP_pressure;BME280_temperature;BME280_humidity;BME280_pressure;Samples;Min_cycle;Max_cycle;Signal;HPM_P1;HPM_P2
2021/11/08 00:01:06;;;;;;;4.07;3.30;;;9.20;73.70;;;8.43;57.96;94956.50;5054954;28;20313;-81
2021/11/08 00:03:36;;;;;;;4.85;3.38;;;9.10;72.70;;;8.38;58.30;94955.41;5054170;28;20252;-82
2021/11/08 00:06:05;;;;;;;4.30;3.10;;;9.10;73.40;;;8.38;58.55;94963.25;5054684;28;20232;-81
2021/11/08 00:08:34;;;;;;;3.78;3.08;;;9.10;72.60;;;8.35;58.59;94956.59;5038796;28;20642;-81
2021/11/08 00:11:02;;;;;;;3.15;2.70;;;9.10;72.60;;;8.35;58.02;94953.97;5070898;28;20669;-81
2021/11/08 00:13:29;;;;;;;2.58;2.38;;;9.10;72.50;;;8.37;57.99;94953.78;5070893;28;20256;-81
2021/11/08 00:16:30;;;;;;;3.45;2.80;;;9.00;72.40;;;8.33;58.02;94961.16;5054805;28;20199;-82
2021/11/08 00:19:02;;;;;;;3.17;2.72;;;9.00;72.40;;;8.32;58.01;94959.53;5071645;28;20276;-81
2021/11/08 00:21:32;;;;;;;4.20;2.58;;;9.00;72.50;;;8.30;58.03;94959.72;5054451;28;20219;-81
2021/11/08 00:24:00;;;;;;;2.97;2.60;;;9.00;72.50;;;8.30;58.06;94958.91;5070893;28;20282;-82
2021/11/08 00:26:27;;;;;;;3.10;2.47;;;9.00;72.50;;;8.23;57.66;94950.97;5054435;28;20681;-81
2021/11/08 00:28:54;;;;;;;3.45;2.80;;;9.00;72.30;;;8.18;57.68;94946.25;5054668;28;20199;-82
2021/11/08 00:31:21;;;;;;;3.55;2.65;;;8.90;72.30;;;8.13;57.53;94953.81;5070844;28;20207;-82
2021/11/08 00:33:48;;;;;;;2.80;2.60;;;8.90;72.20;;;8.04;57.82;94939.19;5070761;28;20677;-82
2021/11/08 00:36:16;;;;;;;2.40;2.20;;;8.90;72.20;;;7.92;57.65;94943.19;5070689;28;20227;-82
2021/11/08 00:38:44;;;;;;;3.00;2.22;;;8.90;72.10;;;7.90;58.54;94958.22;5054725;28;20192;-81
2021/11/08 00:41:11;;;;;;;2.30;2.10;;;8.80;72.20;;;7.87;57.92;94971.63;5067285;28;20231;-81
2021/11/08 00:43:39;;;;;;;2.15;1.95;;;8.70;72.20;;;7.85;58.01;94983.06;5053075;28;20196;-80
2021/11/08 00:46:06;;;;;;;2.40;2.15;;;8.70;72.30;;;7.87;58.09;94997.75;5070588;28;20219;-82
2021/11/08 00:48:35;;;;;;;3.00;2.70;;;8.60;72.40;;;7.82;58.32;94993.88;5070898;28;20200;-81
2021/11/08 00:51:04;;;;;;;4.13;2.95;;;8.60;72.70;;;7.90;58.67;94990.38;5071027;28;20223;-81
2021/11/08 00:53:31;;;;;;;3.08;2.70;;;8.60;72.80;;;7.94;58.47;94985.63;5054005;28;20196;-82
2021/11/08 00:56:03;;;;;;;3.95;2.70;;;8.60;73.00;;;7.97;58.40;94988.72;5070311;28;20204;-81
2021/11/08 01:01:02;;;;;;;2.40;2.20;;;8.60;73.80;;;8.04;57.95;94988.00;5053870;28;20343;-82
2021/11/08 01:03:32;;;;;;;2.67;2.08;;;8.60;72.80;;;8.05;58.23;94985.22;5070442;28;20594;-82
2021/11/08 01:06:00;;;;;;;2.75;2.47;;;8.70;72.80;;;8.04;57.99;94993.25;5054125;28;20286;-81
2021/11/08 01:08:27;;;;;;;2.90;2.60;;;8.70;72.70;;;7.94;57.85;94988.25;5054179;28;20199;-82
2021/11/08 01:10:55;;;;;;;2.70;2.40;;;8.70;72.60;;;7.88;57.90;94988.94;5053823;28;20208;-81
2021/11/08 01:13:24;;;;;;;3.67;2.53;;;8.70;72.60;;;7.82;57.82;94990.44;5070523;28;20231;-81
2021/11/08 01:15:52;;;;;;;3.05;2.50;;;8.60;72.50;;;7.82;57.85;95000.88;5070842;28;20191;-81
2021/11/08 01:18:19;;;;;;;3.90;3.00;;;8.60;72.40;;;7.68;57.96;94987.56;5070772;28;20204;-81
2021/11/08 01:20:47;;;;;;;2.88;2.58;;;8.60;72.50;;;7.68;57.99;95003.22;5054201;28;20219;-81
2021/11/08 01:23:18;;;;;;;2.55;2.30;;;8.60;73.40;;;7.62;57.68;95006.53;5066923;28;20211;-81
2021/11/08 01:25:53;;;;;;;2.20;2.00;;;8.50;72.40;;;7.57;57.53;95000.19;5067203;28;20196;-82
2021/11/08 01:28:27;;;;;;;3.30;2.30;;;8.40;72.30;;;7.46;57.62;95002.22;5035213;28;20222;-81
2021/11/08 01:30:54;;;;;;;2.30;2.10;;;8.40;72.20;;;7.40;57.75;95002.88;5042124;28;20204;-81
2021/11/08 01:33:22;;;;;;;2.33;2.00;;;8.30;72.20;;;7.33;57.63;95010.56;5070498;28;20654;-81
2021/11/08 01:38:50;;;;;;;3.40;2.50;;;8.20;72.30;;;7.21;57.85;95012.75;5059432;28;20665;-82
2021/11/08 01:41:24;;;;;;;2.35;2.15;;;8.10;72.40;;;7.21;58.37;95011.91;5059414;28;20290;-82
2021/11/08 01:43:52;;;;;;;2.22;1.98;;;8.10;73.00;;;7.26;57.91;95016.63;5056987;28;20206;-82
2021/11/08 01:46:21;;;;;;;2.35;2.15;;;8.00;72.70;;;7.31;58.29;95017.75;5057371;28;20298;-81
2021/11/08 01:48:50;;;;;;;2.60;2.40;;;8.10;73.00;;;7.37;58.09;95022.31;5057263;28;20196;-81
2021/11/08 01:51:18;;;;;;;2.00;1.80;;;8.00;73.10;;;7.41;58.28;95019.34;5057252;28;20318;-82
2021/11/08 01:53:47;;;;;;;2.75;2.33;;;8.10;73.10;;;7.46;58.04;95020.47;5056907;28;20214;-81
2021/11/08 01:56:16;;;;;;;2.60;2.10;;;8.10;73.20;;;7.49;58.22;95025.34;5057059;28;20219;-82
2021/11/08 01:58:44;;;;;;;2.97;2.47;;;8.20;73.30;;;7.48;58.23;95015.91;5067490;28;20227;-81
2021/11/08 02:01:12;;;;;;;2.50;2.20;;;8.10;73.10;;;7.47;58.13;95014.28;5065682;28;20239;-81
2021/11/08 02:03:43;;;;;;;2.72;2.50;;;8.20;73.00;;;7.47;58.20;95018.66;5071158;28;20203;-82
2021/11/08 02:06:10;;;;;;;2.60;2.40;;;8.20;73.00;;;7.44;58.05;95013.81;5072046;28;20310;-81
2021/11/08 02:08:38;;;;;;;2.75;2.10;;;8.20;73.00;;;7.41;58.49;95016.72;5068700;28;20579;-82
2021/11/08 02:11:07;;;;;;;2.30;2.10;;;8.20;73.00;;;7.40;58.04;95020.31;5051295;28;20234;-81
2021/11/08 02:13:35;;;;;;;3.45;2.50;;;8.10;72.70;;;7.34;57.97;95029.66;5066677;28;20207;-81
2021/11/08 02:16:04;;;;;;;2.67;2.47;;;8.10;72.70;;;7.27;58.08;95026.09;5067705;28;20266;-82
2021/11/08 02:18:31;;;;;;;2.67;2.42;;;8.10;72.70;;;7.17;58.11;95031.50;5051373;28;20350;-82
2021/11/08 02:21:02;;;;;;;4.38;2.70;;;8.00;72.60;;;7.08;58.59;95027.28;5084485;28;20226;-81
2021/11/08 02:23:29;;;;;;;2.97;2.63;;;8.00;72.70;;;7.02;58.43;95037.41;5087474;28;20237;-81
2021/11/08 02:26:02;;;;;;;2.65;2.40;;;8.00;72.70;;;6.92;58.45;95036.78;5071483;28;20188;-82
2021/11/08 02:28:30;;;;;;;2.40;2.17;;;7.90;72.70;;;6.85;58.27;95049.66;5068230;28;20207;-82
2021/11/08 02:30:58;;;;;;;2.50;2.15;;;7.80;72.60;;;6.78;58.55;95050.50;5052324;28;20294;-81
2021/11/08 02:33:27;;;;;;;3.35;2.55;;;7.70;72.60;;;6.69;58.28;95050.50;5056102;28;20657;-82
2021/11/08 02:35:58;;;;;;;2.53;2.33;;;7.70;72.70;;;6.64;58.93;95063.19;5072941;28;20191;-81
2021/11/08 02:38:27;;;;;;;2.50;2.30;;;7.60;72.70;;;6.58;58.57;95063.84;5072976;28;20673;-82
2021/11/08 02:40:57;;;;;;;2.42;2.22;;;7.60;72.70;;;6.46;58.50;95059.91;5072831;28;20226;-81
2021/11/08 02:43:27;;;;;;;2.20;2.00;;;7.50;72.60;;;6.39;58.39;95071.00;5072332;28;20449;-81
2021/11/08 02:48:57;;;;;;;2.20;2.00;;;7.30;72.60;;;6.14;58.54;95059.75;5056722;28;20203;-81
2021/11/08 02:51:27;;;;;;;3.50;2.40;;;7.30;72.50;;;6.16;58.89;95077.81;5037779;28;20228;-82
2021/11/08 02:54:02;;;;;;;2.50;2.30;;;7.20;72.60;;;6.13;59.14;95067.72;5039949;28;20198;-81
2021/11/08 02:56:30;;;;;;;2.47;2.28;;;7.10;73.10;;;6.09;58.93;95060.22;5056625;28;20207;-80
2021/11/08 02:58:57;;;;;;;2.80;2.47;;;7.10;73.10;;;6.15;59.40;95071.81;5055498;28;20187;-81
2021/11/08 03:01:26;;;;;;;3.20;2.75;;;7.00;73.30;;;6.17;59.08;95071.63;5055916;28;20219;-82
2021/11/08 03:03:56;;;;;;;3.08;2.65;;;7.00;73.60;;;6.18;59.32;95068.88;5054976;28;20645;-81
2021/11/08 03:06:32;;;;;;;2.88;2.58;;;7.00;73.80;;;6.19;59.54;95067.06;5039854;28;20219;-80
2021/11/08 03:09:33;;;;;;;3.17;2.88;;;7.00;73.80;;;6.17;59.67;95069.84;5053018;28;20200;-81
2021/11/08 03:12:13;;;;;;;3.13;2.80;;;7.00;73.80;;;6.17;59.62;95077.66;5064947;28;20640;-81
2021/11/08 03:14:54;;;;;;;3.50;2.90;;;7.00;73.80;;;6.18;59.94;95076.69;5055207;28;20202;-81
2021/11/08 03:17:24;;;;;;;2.78;2.53;;;7.10;73.80;;;6.17;59.69;95079.44;5040585;28;20637;-81
2021/11/08 03:19:51;;;;;;;2.90;2.60;;;7.00;73.70;;;6.14;59.61;95075.38;5055782;28;20708;-81
2021/11/08 03:22:25;;;;;;;3.35;2.90;;;7.00;73.80;;;6.16;60.52;95076.00;5071439;28;20219;-81
2021/11/08 03:24:56;;;;;;;2.95;2.67;;;7.00;73.70;;;6.13;60.23;95076.34;5056422;28;20199;-81
2021/11/08 03:30:21;;;;;;;3.30;2.90;;;7.00;73.80;;;6.09;60.52;95073.25;5057863;28;20200;-80
2021/11/08 03:32:52;;;;;;;5.78;2.95;;;7.00;73.80;;;6.08;59.93;95076.03;5055002;28;20709;-80
2021/11/08 03:35:23;;;;;;;3.75;2.80;;;6.90;73.70;;;6.01;60.18;95075.81;5071848;28;20241;-82
2021/11/08 03:37:52;;;;;;;3.13;2.67;;;6.90;73.80;;;6.04;60.00;95080.72;5071561;28;20210;-81
2021/11/08 03:40:29;;;;;;;3.33;2.92;;;6.90;73.70;;;6.05;59.98;95086.75;5071986;28;20684;-81
2021/11/08 03:42:58;;;;;;;3.10;2.78;;;6.90;73.70;;;6.03;60.09;95093.88;5071045;28;20238;-81
2021/11/08 03:45:29;;;;;;;3.63;3.00;;;6.90;73.70;;;6.03;60.80;95093.88;5034399;28;20204;-80
2021/11/08 03:47:58;;;;;;;3.88;3.00;;;6.90;73.80;;;6.02;61.08;95092.28;5051471;28;20204;-81
2021/11/08 03:50:26;;;;;;;3.67;3.38;;;6.90;74.00;;;6.05;60.41;95099.75;5035030;28;20192;-80
2021/11/08 03:52:53;;;;;;;5.20;3.10;;;6.80;74.10;;;6.09;60.45;95108.88;5043931;28;20223;-80
2021/11/08 03:55:23;;;;;;;4.68;3.38;;;6.90;74.20;;;6.13;60.35;95111.97;5055059;28;20290;-80
2021/11/08 03:57:51;;;;;;;3.92;3.30;;;6.80;74.30;;;6.15;60.19;95104.81;5054484;28;20211;-80
2021/11/08 04:00:22;;;;;;;4.35;3.60;;;6.90;74.40;;;6.19;60.56;95111.34;5054276;28;20255;-81
2021/11/08 04:02:50;;;;;;;3.85;3.42;;;6.90;74.60;;;6.27;60.63;95113.16;5054749;28;20226;-80
2021/11/08 04:05:19;;;;;;;4.35;3.50;;;6.90;74.60;;;6.33;60.72;95115.94;5070586;28;20192;-80
2021/11/08 04:07:47;;;;;;;5.10;3.75;;;7.00;74.70;;;6.37;60.56;95109.44;5054590;28;20222;-80
2021/11/08 04:10:16;;;;;;;4.40;3.92;;;7.00;74.70;;;6.45;60.94;95119.06;5071309;28;20205;-80
2021/11/08 04:12:44;;;;;;;5.07;3.70;;;7.10;74.80;;;6.49;60.27;95107.31;5071143;28;20215;-80
2021/11/08 04:15:15;;;;;;;5.78;4.35;;;7.10;75.60;;;6.56;60.74;95110.09;5069636;28;20292;-81
2021/11/08 04:17:46;;;;;;;5.82;4.13;;;7.10;75.00;;;6.62;60.60;95103.44;5069274;28;20215;-81
2021/11/08 04:20:19;;;;;;;4.60;4.10;;;7.20;74.80;;;6.66;60.85;95099.53;5069540;28;20226;-81
2021/11/08 04:22:49;;;;;;;5.95;4.20;;;7.30;75.00;;;6.70;60.54;95099.03;5068499;28;20302;-81
2021/11/08 04:25:20;;;;;;;4.38;3.97;;;7.30;75.00;;;6.77;60.65;95112.22;5033673;28;20200;-80
2021/11/08 04:27:47;;;;;;;5.32;4.18;;;7.30;74.80;;;6.81;60.89;95118.75;5043868;28;20684;-80
2021/11/08 04:30:16;;;;;;;6.57;4.28;;;7.40;74.80;;;6.86;60.72;95123.47;5062387;28;20570;-81
2021/11/08 04:35:21;;;;;;;5.38;4.30;;;7.50;75.00;;;6.96;60.58;95121.50;5062052;28;20199;-80
2021/11/08 04:40:42;;;;;;;5.22;4.20;;;7.60;75.00;;;7.03;60.51;95119.88;5055702;28;20310;-80
2021/11/08 04:50:54;;;;;;;4.80;3.80;;;7.80;74.80;;;7.20;60.27;95106.81;5052287;28;20654;-81
2021/11/08 05:31:49;;;;;;;7.00;4.00;;;8.10;74.60;;;7.36;59.85;95173.78;5038172;28;20262;-82
2021/11/08 05:34:17;;;;;;;6.68;3.70;;;8.00;74.50;;;7.36;59.94;95176.41;5041126;28;20295;-82
2021/11/08 05:36:45;;;;;;;4.45;3.33;;;8.00;74.50;;;7.33;59.83;95174.13;5057214;28;20705;-81
2021/11/08 05:39:13;;;;;;;6.95;3.25;;;8.00;74.40;;;7.28;59.99;95171.22;5057749;28;20264;-82
2021/11/08 05:41:41;;;;;;;7.07;3.83;;;8.00;74.50;;;7.23;59.61;95179.53;5073569;28;20314;-82
2021/11/08 05:44:09;;;;;;;6.90;3.85;;;8.00;74.50;;;7.18;59.96;95172.19;5080293;28;20223;-82
2021/11/08 05:46:36;;;;;;;6.63;3.20;;;8.00;74.40;;;7.15;59.58;95182.97;5057123;28;20277;-81
2021/11/08 05:49:04;;;;;;;8.80;5.50;;;8.00;74.20;;;7.05;60.07;95179.69;5057288;28;20580;-82
2021/11/08 05:51:32;;;;;;;6.35;4.10;;;7.90;74.10;;;7.04;60.07;95191.09;5057227;28;20265;-82
2021/11/08 05:53:59;;;;;;;3.70;3.08;;;7.90;74.00;;;6.97;59.77;95190.94;5053370;28;20196;-80
2021/11/08 05:59:17;;;;;;;5.25;3.20;;;7.90;74.90;;;6.89;59.48;95191.75;5058066;28;20196;-81
2021/11/08 06:51:22;;;;;;;6.47;3.22;;;7.60;74.20;;;7.07;60.23;95240.34;5071645;28;20216;-81
2021/11/08 06:53:54;;;;;;;6.32;3.17;;;7.70;74.30;;;7.08;60.20;95238.53;5061336;28;20652;-80
2021/11/08 06:56:27;;;;;;;5.03;2.75;;;7.70;74.30;;;7.12;59.74;95242.47;5064903;28;20219;-82
2021/11/08 06:58:58;;;;;;;3.55;2.63;;;7.70;74.30;;;7.14;59.93;95246.53;5061773;28;20196;-82
2021/11/08 07:01:28;;;;;;;5.80;3.13;;;7.80;74.40;;;7.18;59.93;95244.44;5061893;28;20234;-80
2021/11/08 07:03:58;;;;;;;4.30;3.20;;;7.70;74.30;;;7.20;59.72;95245.06;5064626;28;20192;-80
2021/11/08 07:06:25;;;;;;;5.47;3.25;;;7.80;74.30;;;7.27;59.67;95247.84;5063672;28;20243;-80
2021/11/08 07:08:52;;;;;;;6.30;3.15;;;7.80;74.30;;;7.30;59.61;95253.56;5062284;28;20724;-81
2021/11/08 07:11:19;;;;;;;4.30;2.95;;;7.90;74.40;;;7.33;59.70;95255.81;5061637;28;20220;-81
2021/11/08 07:13:46;;;;;;;4.38;2.95;;;7.90;74.40;;;7.39;59.75;95261.41;5060006;28;20196;-80
2021/11/08 07:16:13;;;;;;;3.90;3.22;;;7.90;74.40;;;7.44;59.63;95254.69;5062111;28;20216;-79
2021/11/08 07:18:41;;;;;;;6.80;3.20;;;7.90;74.40;;;7.56;59.91;95270.84;5046101;28;20605;-78
2021/11/08 07:21:08;;;;;;;4.53;3.58;;;8.00;74.50;;;7.61;59.71;95259.91;5045445;28;20234;-79
2021/11/08 07:23:35;;;;;;;4.93;3.15;;;8.00;74.50;;;7.79;59.86;95276.22;5065319;28;20611;-80
2021/11/08 07:26:03;;;;;;;5.25;3.30;;;8.10;74.60;;;7.91;59.81;95288.91;5062454;28;20231;-80
2021/11/08 07:28:30;;;;;;;6.82;3.45;;;8.20;74.60;;;8.04;59.64;95283.19;5061078;28;20229;-80
2021/11/08 07:30:58;;;;;;;5.95;3.50;;;8.30;74.70;;;8.18;59.59;95282.50;5064681;28;20184;-80
2021/11/08 07:33:27;;;;;;;6.57;3.40;;;8.40;74.80;;;8.29;59.19;95283.94;5060180;28;20219;-80
2021/11/08 07:35:54;;;;;;;6.22;3.53;;;8.50;74.80;;;8.39;59.05;95283.75;5046497;28;20250;-79
2021/11/08 07:38:21;;;;;;;6.13;3.80;;;8.60;74.90;;;8.46;58.74;95287.31;5068452;28;20202;-80
2021/11/08 07:40:48;;;;;;;8.32;4.15;;;8.70;75.00;;;8.54;58.71;95292.53;5043206;28;20302;-79
2021/11/08 07:43:16;;;;;;;5.47;3.42;;;8.80;74.80;;;8.62;58.67;95297.72;5046599;28;20199;-79
2021/11/08 07:45:43;;;;;;;6.28;3.85;;;8.90;74.70;;;8.71;58.79;95300.31;5043774;28;20658;-79
2021/11/08 07:48:11;;;;;;;5.25;3.63;;;9.00;74.60;;;8.76;58.74;95303.22;5060880;28;20646;-79
2021/11/08 07:50:39;;;;;;;3.88;3.30;;;9.10;74.40;;;8.80;58.41;95310.56;5064723;28;20218;-80
2021/11/08 07:53:08;;;;;;;5.15;3.30;;;9.10;74.40;;;8.83;58.07;95304.19;5051598;28;20324;-79
2021/11/08 07:55:36;;;;;;;6.05;3.40;;;9.20;74.00;;;8.88;58.41;95308.91;5067764;28;20194;-80
2021/11/08 07:58:05;;;;;;;4.57;3.53;;;9.30;74.00;;;8.90;58.10;95312.97;5066987;28;20223;-80
2021/11/08 08:00:38;;;;;;;5.13;3.42;;;9.30;74.00;;;8.90;57.88;95314.75;5070171;28;20234;-80
2021/11/08 08:03:06;;;;;;;6.53;3.88;;;9.40;73.80;;;8.92;57.97;95316.25;5071521;28;20245;-80
2021/11/08 08:05:34;;;;;;;4.13;3.30;;;9.40;73.70;;;8.94;57.84;95311.63;5054028;28;20290;-80
2021/11/08 08:08:01;;;;;;;4.78;3.40;;;9.40;73.80;;;9.00;57.92;95325.84;5052090;28;20563;-81
2021/11/08 08:10:28;;;;;;;4.30;3.03;;;9.40;73.70;;;9.05;58.06;95323.53;5051663;28;20291;-80
2021/11/08 08:12:55;;;;;;;6.30;3.25;;;9.50;73.80;;;9.06;57.96;95322.53;5069217;28;20688;-80
2021/11/08 08:15:23;;;;;;;4.80;3.40;;;9.50;73.80;;;9.15;57.71;95328.53;5053948;28;20203;-81
2021/11/08 08:17:51;;;;;;;8.68;4.03;;;9.50;73.60;;;9.13;57.43;95318.25;5070879;28;20222;-80
2021/11/08 08:20:24;;;;;;;6.22;3.72;;;9.60;73.40;;;9.17;57.44;95331.81;5070648;28;20213;-80
2021/11/08 08:22:51;;;;;;;4.35;3.13;;;9.60;73.30;;;9.24;57.68;95334.53;5054429;28;20227;-80
2021/11/08 08:25:19;;;;;;;5.38;3.20;;;9.70;73.50;;;9.29;57.65;95327.81;5036938;28;20245;-80
2021/11/08 08:27:47;;;;;;;4.60;2.78;;;9.70;73.50;;;9.35;57.34;95335.94;5058631;28;20298;-80
2021/11/08 08:30:15;;;;;;;8.88;3.28;;;9.70;73.40;;;9.35;57.52;95328.09;5057066;28;20269;-81
2021/11/08 08:32:42;;;;;;;5.80;3.30;;;9.80;73.20;;;9.34;56.97;95332.53;5054058;28;20215;-80
2021/11/08 08:35:10;;;;;;;6.38;3.55;;;9.80;72.90;;;9.34;56.96;95345.59;5052537;28;20208;-81
2021/11/08 08:37:37;;;;;;;5.75;2.92;;;9.80;72.80;;;9.29;57.01;95334.84;5057617;28;20760;-81
2021/11/08 08:40:05;;;;;;;5.97;3.30;;;9.90;72.80;;;9.34;56.83;95345.59;5068633;28;20253;-80
2021/11/08 08:42:33;;;;;;;6.20;3.13;;;9.80;72.60;;;9.33;56.83;95343.97;5050424;28;20254;-79
2021/11/08 08:45:01;;;;;;;6.38;3.03;;;10.00;72.40;;;9.38;56.48;95351.31;5052849;28;20281;-80
2021/11/08 08:47:28;;;;;;;3.80;2.88;;;9.90;72.70;;;9.44;56.67;95354.03;5051644;28;20246;-80
2021/11/08 08:49:55;;;;;;;5.68;2.60;;;9.90;72.60;;;9.46;56.54;95343.41;5064637;28;20268;-81
2021/11/08 08:52:27;;;;;;;3.40;2.40;;;9.90;72.50;;;9.53;56.30;95339.13;5067021;28;20211;-80
2021/11/08 08:54:55;;;;;;;3.88;2.63;;;10.00;71.10;;;9.59;55.86;95343.66;5049869;28;20712;-81
2021/11/08 08:57:22;;;;;;;4.18;2.50;;;10.00;70.90;;;9.71;55.54;95345.84;5046823;28;20214;-80
2021/11/08 08:59:51;;;;;;;4.15;2.50;;;10.10;70.80;;;9.86;55.45;95340.66;5073001;28;20575;-81
2021/11/08 09:02:38;;;;;;;5.78;3.33;;;10.10;70.90;;;10.03;55.69;95341.31;5071875;28;20230;-81
2021/11/08 09:05:06;;;;;;;3.83;2.42;;;10.20;71.10;;;10.15;55.67;95345.16;5071399;28;20191;-81
2021/11/08 09:07:34;;;;;;;4.85;2.88;;;10.30;71.00;;;10.20;55.23;95355.09;5090679;28;20380;-81
2021/11/08 09:10:03;;;;;;;6.15;2.70;;;10.40;70.90;;;10.26;55.32;95359.63;5072796;28;20286;-81
2021/11/08 09:12:33;;;;;;;4.75;2.60;;;10.40;71.00;;;10.30;55.03;95355.69;5072824;28;20757;-80
2021/11/08 09:15:00;;;;;;;6.93;2.97;;;10.50;70.50;;;10.28;54.91;95360.28;5073081;28;20199;-80
2021/11/08 09:17:27;;;;;;;4.15;2.75;;;10.50;70.40;;;10.34;54.27;95359.56;5073578;28;20707;-80
2021/11/08 09:20:08;;;;;;;5.43;2.75;;;10.60;70.20;;;10.44;54.83;95358.53;5073518;28;20195;-81
2021/11/08 09:22:37;;;;;;;3.50;2.45;;;10.60;70.40;;;10.54;54.82;95367.72;5074095;28;20704;-80
2021/11/08 09:25:05;;;;;;;5.20;2.65;;;10.70;70.70;;;10.71;54.81;95370.19;5057024;28;20610;-81
2021/11/08 09:27:32;;;;;;;3.90;2.63;;;10.70;70.90;;;10.88;53.68;95365.56;5057597;28;20211;-80
2021/11/08 09:30:08;;;;;;;4.70;2.80;;;10.80;70.60;;;10.89;53.01;95348.84;5057441;28;20203;-79
2021/11/08 09:32:35;;;;;;;5.00;2.17;;;10.90;69.80;;;11.04;53.86;95354.06;5070826;28;20207;-79
2021/11/08 09:35:07;;;;;;;3.30;2.30;;;11.00;70.30;;;11.14;53.26;95369.50;5062059;28;20204;-80
2021/11/08 09:37:38;;;;;;;6.15;3.03;;;11.10;70.10;;;11.15;52.23;95369.31;5063621;28;20206;-79
2021/11/08 09:40:06;;;;;;;4.60;2.55;;;11.20;69.40;;;11.05;51.11;95374.06;5056031;28;20210;-81
2021/11/08 09:42:35;;;;;;;5.65;2.83;;;11.30;68.60;;;10.97;52.50;95367.06;5052394;28;20318;-80
2021/11/08 09:45:05;;;;;;;5.93;2.85;;;11.30;68.90;;;10.95;52.45;95374.34;5071300;28;20712;-81
2021/11/08 09:47:38;;;;;;;3.95;2.42;;;11.30;68.90;;;10.90;51.94;95363.59;5055566;28;20696;-80
2021/11/08 09:50:10;;;;;;;5.50;2.60;;;11.30;68.60;;;10.88;53.12;95365.56;5072552;28;20645;-79
2021/11/08 09:52:44;;;;;;;4.32;2.55;;;11.30;68.80;;;10.88;53.23;95368.19;5070175;28;20299;-80
2021/11/08 09:55:17;;;;;;;5.60;2.60;;;11.20;69.10;;;10.84;52.83;95367.75;5072443;28;20219;-80
2021/11/08 09:58:05;;;;;;;6.28;2.90;;;11.30;68.90;;;10.69;52.61;95391.38;5071112;28;20251;-79
2021/11/08 10:00:36;;;;;;;5.47;2.15;;;11.20;68.50;;;10.53;52.79;95383.66;5048210;28;20245;-80
2021/11/08 10:03:11;;;;;;;8.13;2.70;;;11.20;68.30;;;10.33;53.02;95385.97;5072912;28;20484;-79
2021/11/08 10:05:42;;;;;;;6.95;2.70;;;11.00;68.10;;;10.15;53.08;95388.91;5051296;28;20252;-80
2021/11/08 10:08:22;;;;;;;7.65;2.80;;;10.90;68.00;;;9.98;53.33;95396.09;5058122;28;20286;-81
2021/11/08 10:10:55;;;;;;;6.30;2.90;;;10.80;68.10;;;9.75;53.42;95387.25;5069343;28;20206;-79
2021/11/08 10:13:27;;;;;;;3.63;2.13;;;10.70;68.00;;;9.61;53.36;95388.00;5070198;28;20192;-79
2021/11/08 10:16:12;;;;;;;4.82;2.40;;;10.60;67.80;;;9.45;53.63;95388.91;5070889;28;20195;-79
2021/11/08 10:18:45;;;;;;;2.42;2.00;;;10.40;68.00;;;9.36;54.07;95387.31;5035323;28;20612;-80
2021/11/08 10:21:18;;;;;;;5.07;2.00;;;10.30;68.20;;;9.37;54.28;95378.47;5057852;28;20595;-80
2021/11/08 10:23:51;;;;;;;3.17;2.10;;;10.20;68.50;;;9.42;54.28;95374.38;5055286;28;20211;-81
2021/11/08 10:26:24;;;;;;;5.30;2.60;;;10.10;68.80;;;9.56;54.87;95382.47;5040242;28;20271;-80
2021/11/08 10:29:06;;;;;;;3.80;2.53;;;10.10;69.40;;;9.69;54.66;95368.78;5062221;28;20179;-81
2021/11/08 10:31:37;;;;;;;3.45;2.25;;;10.10;69.30;;;9.83;54.43;95369.84;5074543;28;20223;-80
2021/11/08 10:34:11;;;;;;;4.75;2.30;;;10.10;69.50;;;9.94;54.13;95354.50;5073258;28;20203;-80
2021/11/08 10:36:39;;;;;;;4.47;2.67;;;10.20;69.60;;;10.16;53.54;95364.31;5072165;28;20215;-80
2021/11/08 10:39:10;;;;;;;5.25;1.95;;;10.30;69.70;;;10.35;54.23;95349.88;5074046;28;20302;-82
2021/11/08 10:41:44;;;;;;;2.30;1.80;;;10.30;69.70;;;10.60;53.58;95350.47;5069064;28;20228;-81
2021/11/08 10:44:22;;;;;;;5.32;2.00;;;10.50;70.00;;;10.87;53.32;95353.44;5080150;28;20251;-80
2021/11/08 10:46:57;;;;;;;3.70;2.03;;;10.70;69.50;;;11.12;52.63;95353.97;5068472;28;20593;-80
2021/11/08 10:49:34;;;;;;;2.03;1.70;;;10.90;69.50;;;11.32;51.97;95354.16;5055686;28;20645;-81
2021/11/08 10:52:02;;;;;;;4.65;1.92;;;11.10;69.30;;;11.46;51.09;95355.13;5072007;28;20776;-81
2021/11/08 10:54:38;;;;;;;1.92;1.38;;;11.20;68.50;;;11.45;51.00;95361.38;5072687;28;20274;-80
2021/11/08 10:57:14;;;;;;;3.13;1.60;;;11.40;67.90;;;11.33;50.75;95358.41;5072202;28;20222;-79
2021/11/08 10:59:48;;;;;;;4.55;1.80;;;11.50;67.80;;;11.32;50.53;95358.63;5019655;28;20257;-79
2021/11/08 11:02:27;;;;;;;3.97;1.65;;;11.50;67.30;;;11.29;51.28;95362.44;5044806;28;20236;-81
2021/11/08 11:05:15;;;;;;;3.30;1.50;;;11.60;67.50;;;11.29;51.69;95362.44;5056269;28;20195;-81
2021/11/08 11:07:43;;;;;;;2.25;1.38;;;11.60;67.50;;;11.25;51.74;95353.28;5043124;28;20223;-81
2021/11/08 11:10:19;;;;;;;5.03;1.75;;;11.70;67.60;;;11.17;50.91;95354.22;5092487;28;20186;-80
2021/11/08 11:12:49;;;;;;;3.63;1.65;;;11.60;66.90;;;11.06;51.17;95357.31;5056333;28;20704;-81
2021/11/08 11:15:25;;;;;;;3.35;1.70;;;11.70;67.10;;;10.92;51.08;95345.03;5067512;28;20264;-81
2021/11/08 11:17:59;;;;;;;3.25;1.52;;;11.60;66.50;;;10.87;51.06;95354.25;5083464;28;20305;-80
2021/11/08 11:20:36;;;;;;;3.67;1.63;;;11.60;66.60;;;10.84;51.09;95359.03;5089989;28;20206;-80
2021/11/08 11:23:21;;;;;;;2.28;1.50;;;11.50;66.60;;;10.84;51.58;95354.63;5075282;28;20637;-80
2021/11/08 11:25:58;;;;;;;3.13;1.73;;;11.40;66.70;;;10.84;51.32;95352.00;5046176;28;20378;-80
2021/11/08 11:28:35;;;;;;;2.40;1.60;;;11.40;66.70;;;10.82;51.39;95350.56;5072206;28;20209;-79
2021/11/08 11:31:26;;;;;;;2.20;1.50;;;11.40;66.70;;;10.77;50.97;95343.22;5053865;28;20336;-80
2021/11/08 11:34:07;;;;;;;2.22;1.58;;;11.40;66.80;;;10.77;51.19;95345.84;5067896;28;20616;-80
2021/11/08 11:36:36;;;;;;;4.07;1.60;;;11.40;66.70;;;10.77;51.46;95342.41;5054359;28;20241;-79
2021/11/08 11:39:10;;;;;;;2.67;1.60;;;11.30;67.00;;;10.80;51.21;95352.53;5055795;28;20274;-79
2021/11/08 11:41:42;;;;;;;2.90;1.50;;;11.40;66.90;;;10.83;51.69;95350.38;5057025;28;20276;-80
2021/11/08 11:44:17;;;;;;;2.50;1.70;;;11.40;67.00;;;10.86;51.25;95342.13;5056509;28;20191;-80
2021/11/08 11:46:49;;;;;;;3.58;1.83;;;11.40;66.80;;;10.95;51.27;95340.22;5054821;28;20226;-81
2021/11/08 11:49:18;;;;;;;9.98;1.88;;;11.40;67.10;;;11.20;51.95;95334.66;5054751;28;20195;-81
2021/11/08 11:51:59;;;;;;;3.35;1.90;;;11.50;67.80;;;11.59;51.73;95338.69;5071270;28;20253;-81
2021/11/08 11:54:30;;;;;;;2.75;1.95;;;11.70;68.30;;;12.07;51.29;95335.50;5072416;28;20206;-80
2021/11/08 11:57:00;;;;;;;3.55;2.00;;;11.80;68.20;;;12.45;50.25;95336.97;5054906;28;20222;-80
2021/11/08 11:59:29;;;;;;;3.28;2.20;;;12.10;68.00;;;12.66;49.99;95341.34;5065235;28;20601;-81
2021/11/08 12:01:58;;;;;;;2.63;1.73;;;12.30;67.60;;;12.81;49.25;95341.22;5070762;28;20284;-81
2021/11/08 12:04:27;;;;;;;2.92;2.03;;;12.50;67.00;;;12.84;48.90;95334.75;5071478;28;20277;-81
2021/11/08 12:07:01;;;;;;;2.92;1.70;;;12.70;66.70;;;12.81;49.02;95333.31;5071569;28;20215;-81
2021/11/08 12:09:33;;;;;;;4.22;1.85;;;12.80;66.10;;;12.67;48.61;95323.72;5068589;28;20241;-81
2021/11/08 12:12:01;;;;;;;4.35;2.10;;;12.90;65.80;;;12.58;48.75;95328.34;5053172;28;20281;-82
2021/11/08 12:14:32;;;;;;;3.80;1.92;;;13.00;65.70;;;12.46;48.59;95331.53;5048591;28;20230;-81
2021/11/08 12:17:20;;;;;;;3.85;1.75;;;12.90;65.30;;;12.48;49.23;95326.88;5054647;28;20218;-81
2021/11/08 12:19:47;;;;;;;2.03;1.80;;;12.90;65.70;;;12.47;48.14;95314.75;5070597;28;20190;-81
2021/11/08 12:22:21;;;;;;;5.45;2.00;;;12.90;65.20;;;12.40;47.95;95316.50;5061276;28;20302;-81
2021/11/08 12:25:11;;;;;;;4.88;2.17;;;12.90;65.00;;;12.31;48.97;95312.41;5069750;28;20608;-82
2021/11/08 12:27:50;;;;;;;2.88;1.85;;;12.80;65.00;;;12.35;49.08;95321.50;5042850;28;20640;-83
2021/11/08 12:30:29;;;;;;;4.13;1.90;;;12.80;65.10;;;12.43;49.32;95318.75;5066180;28;20276;-82
2021/11/08 12:33:01;;;;;;;4.00;1.90;;;12.90;65.60;;;12.52;49.15;95315.97;5048305;28;20214;-82
2021/11/08 12:35:41;;;;;;;4.70;2.08;;;12.90;65.70;;;12.57;47.83;95318.81;5037941;28;20656;-81
2021/11/08 12:38:29;;;;;;;3.83;1.92;;;12.90;64.70;;;12.54;48.53;95320.03;5054307;28;20190;-82